Time;durP1;ratioP1;P1;durP2;ratioP2;P2;SDS_P1;SDS_P2;PMS_P1;PMS_P2;Temp;Humidity;BMP_temperature;BMP_pressure;BME280_temperature;BME280_humidity;BME280_pressure;Samples;Min_cycle;Max_cycle;Signal;HPM_P1;HPM_P2
2021/11/21 00:00:43;;;;;;;26.65;14.57;;;8.20;99.90;;;6.64;99.25;101168.19;2570372;30;138534;-38
2021/11/21 00:03:11;;;;;;;26.35;14.85;;;8.20;99.90;;;6.60;99.87;101170.41;2568946;30;138155;-38
2021/11/21 00:05:44;;;;;;;27.48;15.40;;;8.20;99.90;;;6.71;99.65;101157.44;2569405;30;138191;-38
2021/11/21 00:08:13;;;;;;;28.20;14.43;;;8.30;99.90;;;6.64;99.84;101157.34;2569697;30;136887;-38
2021/11/21 00:10:41;;;;;;;29.48;16.10;;;8.20;99.90;;;6.61;100.00;101142.25;2571591;30;138536;-38
2021/11/21 00:13:11;;;;;;;31.10;15.60;;;8.30;99.90;;;6.62;100.00;101143.09;2567979;30;137250;-39
2021/11/21 00:15:41;;;;;;;28.35;15.57;;;8.20;99.90;;;6.54;100.00;101141.28;2569805;30;138221;-38
2021/11/21 00:18:11;;;;;;;29.63;15.88;;;8.20;99.90;;;6.49;100.00;101132.81;2566950;30;137464;-38
2021/11/21 00:20:41;;;;;;;27.75;15.00;;;8.10;99.90;;;6.44;100.00;101138.78;2569971;30;137253;-38
2021/11/21 00:23:10;;;;;;;30.63;15.38;;;8.10;99.90;;;6.45;100.00;101136.91;2569900;30;138035;-38
2021/11/21 00:25:38;;;;;;;30.90;16.42;;;8.10;99.90;;;6.43;100.00;101131.69;2568496;30;137487;-38
2021/11/21 00:28:05;;;;;;;;;;;8.00;99.90;;;6.42;100.00;101129.13;2568714;30;137780;-38
2021/11/21 00:30:34;;;;;;;29.40;15.45;;;8.00;99.90;;;6.40;100.00;101123.91;2571180;30;138398;-38
2021/11/21 00:33:02;;;;;;;27.13;14.75;;;8.00;99.90;;;6.36;100.00;101119.84;2570548;30;138314;-38
2021/11/21 00:35:30;;;;;;;30.90;16.15;;;8.00;99.90;;;6.38;100.00;101117.84;2569638;30;137337;-38
2021/11/21 00:37:59;;;;;;;;;;;8.00;99.90;;;6.39;100.00;101116.81;2568941;30;138354;-38
2021/11/21 00:40:27;;;;;;;32.70;16.15;;;8.00;99.90;;;6.36;100.00;101110.88;2570377;30;137498;-38
2021/11/21 00:42:57;;;;;;;31.20;16.38;;;8.00;99.90;;;6.35;100.00;101107.31;2569147;30;137669;-38
2021/11/21 00:45:27;;;;;;;30.95;15.27;;;8.00;99.90;;;6.28;100.00;101095.50;2573778;30;138292;-39
2021/11/21 00:47:57;;;;;;;31.77;16.42;;;7.90;99.90;;;6.32;100.00;101091.41;2570620;30;137165;-38
2021/11/21 00:50:28;;;;;;;30.88;16.60;;;7.90;99.90;;;6.24;100.00;101091.47;2568959;30;140960;-38
2021/11/21 00:53:02;;;;;;;34.10;17.02;;;7.90;99.90;;;6.27;100.00;101096.53;2568972;30;137509;-38
2021/11/21 00:55:41;;;;;;;30.73;16.77;;;7.90;99.90;;;6.25;100.00;101093.16;2570472;30;137993;-38
2021/11/21 00:58:12;;;;;;;30.45;16.02;;;7.90;99.90;;;6.25;100.00;101087.72;2567810;30;137111;-38
2021/11/21 01:00:47;;;;;;;29.02;15.73;;;7.80;99.90;;;6.28;100.00;101090.94;2569705;30;137917;-38
2021/11/21 01:03:21;;;;;;;30.20;15.18;;;7.90;99.90;;;6.31;100.00;101081.59;2568564;30;137527;-38
2021/11/21 01:05:55;;;;;;;31.88;16.73;;;7.90;99.90;;;6.23;100.00;101074.34;2568512;30;138446;-38
2021/11/21 01:08:23;;;;;;;28.50;15.77;;;7.90;99.90;;;6.23;100.00;101065.41;2571018;30;137037;-38
2021/11/21 01:11:02;;;;;;;33.80;17.52;;;7.80;99.90;;;6.20;100.00;101063.88;2570475;30;137211;-38
2021/11/21 01:13:30;;;;;;;31.02;16.45;;;7.80;99.90;;;6.15;100.00;101059.00;2569677;30;137636;-38
2021/11/21 01:16:01;;;;;;;30.80;15.80;;;7.80;99.90;;;6.14;100.00;101076.28;2569453;30;137499;-38
2021/11/21 01:18:30;;;;;;;33.70;16.73;;;7.80;99.90;;;6.11;100.00;101065.81;2570632;30;137744;-38
2021/11/21 01:21:00;;;;;;;30.38;16.48;;;7.80;99.90;;;6.10;100.00;101069.53;2570687;30;137483;-38
2021/11/21 01:23:28;;;;;;;32.08;17.05;;;7.70;99.90;;;6.10;100.00;101074.09;2570311;30;138207;-38
2021/11/21 01:25:57;;;;;;;;;;;7.70;99.90;;;6.09;100.00;101058.88;2568406;30;137804;-38
2021/11/21 01:28:25;;;;;;;30.33;15.18;;;7.70;99.90;;;6.13;100.00;101061.06;2567973;30;137031;-38
2021/11/21 01:30:52;;;;;;;31.95;16.17;;;7.70;99.90;;;6.15;100.00;101050.03;2567354;30;137480;-38
2021/11/21 01:33:21;;;;;;;33.72;16.63;;;7.70;99.90;;;6.18;100.00;101050.53;2571616;30;137140;-38
2021/11/21 01:35:49;;;;;;;31.60;16.15;;;7.80;99.90;;;6.12;100.00;101040.41;2568661;30;138295;-38
2021/11/21 01:38:18;;;;;;;32.53;16.02;;;7.80;99.90;;;6.24;100.00;101048.97;2565528;30;137354;-38
2021/11/21 01:40:47;;;;;;;33.33;16.40;;;7.80;99.90;;;6.24;100.00;101048.97;2569305;30;139161;-38
2021/11/21 01:43:16;;;;;;;34.08;16.27;;;7.80;99.90;;;6.21;100.00;101051.19;2569404;30;137732;-38
2021/11/21 01:45:43;;;;;;;34.38;16.75;;;7.80;99.90;;;6.17;100.00;101054.25;2571274;30;139151;-38
2021/11/21 01:48:11;;;;;;;30.25;15.25;;;7.80;99.90;;;6.14;100.00;101040.22;2569927;30;137542;-38
2021/11/21 01:50:42;;;;;;;34.83;17.73;;;7.80;99.90;;;6.16;100.00;101047.16;2569486;30;139442;-38
2021/11/21 01:53:12;;;;;;;33.30;17.40;;;7.80;99.90;;;6.18;100.00;101044.25;2570923;30;137810;-38
2021/11/21 01:55:41;;;;;;;31.33;15.70;;;7.80;99.90;;;6.18;100.00;101045.09;2569223;30;137547;-38
2021/11/21 01:58:08;;;;;;;34.25;16.65;;;7.80;99.90;;;6.13;100.00;101031.25;2569284;30;136837;-38
2021/11/21 02:00:41;;;;;;;32.47;16.00;;;7.70;99.90;;;6.10;100.00;101026.19;2568786;30;137322;-38
2021/11/21 02:03:10;;;;;;;32.85;17.38;;;7.70;99.90;;;6.07;100.00;101031.94;2569213;30;137542;-38
2021/11/21 02:05:38;;;;;;;30.70;16.00;;;7.70;99.90;;;6.06;100.00;101029.44;2571942;30;138264;-38
2021/11/21 02:08:08;;;;;;;33.40;15.98;;;7.70;99.90;;;6.10;100.00;101028.91;2569021;30;137761;-38
2021/11/21 02:10:36;;;;;;;32.25;16.45;;;7.70;99.90;;;6.12;100.00;101013.31;2566240;30;138454;-38
2021/11/21 02:13:07;;;;;;;33.10;16.33;;;7.70;99.90;;;6.13;100.00;101017.72;2568511;30;137072;-38
2021/11/21 02:15:37;;;;;;;33.80;16.70;;;7.70;99.90;;;6.07;100.00;101004.84;2569809;30;138096;-38
2021/11/21 02:18:05;;;;;;;34.00;16.10;;;7.70;99.90;;;6.10;100.00;101007.22;2571219;30;138456;-38
2021/11/21 02:20:35;;;;;;;32.67;16.00;;;7.70;99.90;;;6.12;100.00;100996.19;2567978;30;138200;-38
2021/11/21 02:23:07;;;;;;;32.72;16.30;;;7.70;99.90;;;6.10;100.00;100995.53;2568136;30;138726;-38
2021/11/21 02:25:37;;;;;;;33.72;16.40;;;7.70;99.90;;;6.11;100.00;100989.97;2568174;30;137403;-38
2021/11/21 02:28:06;;;;;;;31.42;16.02;;;7.70;99.90;;;6.09;100.00;100980.31;2568445;30;138385;-38
2021/11/21 02:30:36;;;;;;;36.65;17.27;;;7.70;99.90;;;6.17;100.00;100983.81;2569450;30;139006;-38
2021/11/21 02:33:11;;;;;;;31.50;16.30;;;7.70;99.90;;;6.17;100.00;100978.41;2571031;30;136727;-38
2021/11/21 02:35:42;;;;;;;33.75;16.20;;;7.70;99.90;;;6.10;100.00;100969.31;2568503;30;138904;-38
2021/11/21 02:38:14;;;;;;;36.47;17.30;;;7.70;99.90;;;6.14;100.00;100976.03;2569420;30;138461;-38
2021/11/21 02:40:42;;;;;;;36.13;16.38;;;7.70;99.90;;;6.16;100.00;100976.72;2568778;30;138527;-38
2021/11/21 02:43:10;;;;;;;32.90;16.63;;;7.80;99.90;;;6.16;100.00;100976.72;2570078;30;136790;-38
2021/11/21 02:45:38;;;;;;;;;;;7.80;99.90;;;6.19;100.00;100967.34;2569564;30;139142;-38
2021/11/21 02:48:07;;;;;;;33.83;15.45;;;7.80;99.90;;;6.20;100.00;100971.75;2569542;30;137780;-38
2021/11/21 02:50:35;;;;;;;32.80;16.02;;;7.80;99.90;;;6.18;100.00;100962.97;2567557;30;139487;-38
2021/11/21 02:53:03;;;;;;;31.75;14.90;;;7.80;99.90;;;6.17;100.00;100956.72;2569958;30;138232;-38
2021/11/21 02:55:33;;;;;;;31.30;15.32;;;7.80;99.90;;;6.12;100.00;100955.56;2569012;30;138196;-38
2021/11/21 02:58:03;;;;;;;31.95;15.30;;;7.70;99.90;;;6.19;100.00;100961.94;2570724;30;137617;-38
2021/11/21 03:00:35;;;;;;;32.47;15.30;;;7.70;99.90;;;6.17;100.00;100954.00;2569358;30;138403;-38
2021/11/21 03:03:03;;;;;;;37.22;16.20;;;7.80;99.90;;;6.18;100.00;100946.72;2569468;30;138169;-38
2021/11/21 03:05:35;;;;;;;29.95;14.35;;;7.80;99.90;;;6.14;100.00;100945.38;2567854;30;137900;-38
2021/11/21 03:08:04;;;;;;;31.58;15.02;;;7.80;99.90;;;6.14;100.00;100954.38;2567961;30;137722;-38
2021/11/21 03:10:32;;;;;;;31.85;14.93;;;7.70;99.90;;;6.13;100.00;100932.88;2569148;30;138364;-38
2021/11/21 03:13:04;;;;;;;31.38;14.75;;;7.70;99.90;;;6.17;100.00;100929.63;2567755;30;136740;-38
2021/11/21 03:15:33;;;;;;;31.88;14.75;;;7.70;99.90;;;6.16;100.00;100930.66;2568394;30;137450;-38
2021/11/21 03:18:03;;;;;;;30.85;15.18;;;7.80;99.90;;;6.13;100.00;100928.31;2570437;30;137638;-38
2021/11/21 03:20:34;;;;;;;29.17;13.55;;;7.70;99.90;;;6.13;100.00;100928.31;2568658;30;138487;-38
2021/11/21 03:23:05;;;;;;;34.25;15.82;;;7.70;99.90;;;6.17;100.00;100924.22;2568749;30;137879;-38
2021/11/21 03:25:34;;;;;;;33.83;14.85;;;7.70;99.90;;;6.14;100.00;100913.75;2569626;30;138239;-38
2021/11/21 03:37:10;;;;;;;27.92;12.70;;;7.80;99.90;;;6.10;100.00;100904.28;2565157;30;140562;-39
2021/11/21 03:39:38;;;;;;;28.65;14.18;;;7.70;99.90;;;6.12;100.00;100902.25;2568410;30;138361;-39
2021/11/21 03:42:06;;;;;;;30.50;13.70;;;7.70;99.90;;;6.14;100.00;100907.47;2567170;30;137821;-39
2021/11/21 03:44:33;;;;;;;;;;;7.70;99.90;;;6.18;100.00;100898.81;2566648;30;138225;-40
2021/11/21 03:47:02;;;;;;;32.25;13.68;;;7.80;99.90;;;6.13;100.00;100897.66;2568560;30;138161;-40
2021/11/21 03:49:31;;;;;;;28.08;13.52;;;7.70;99.90;;;6.14;100.00;100902.03;2567831;30;138131;-39
2021/11/21 03:52:01;;;;;;;27.52;13.57;;;7.70;99.90;;;6.14;100.00;100900.19;2568174;30;138421;-39
2021/11/21 03:54:29;;;;;;;28.30;13.25;;;7.70;99.90;;;6.18;100.00;100896.09;2568285;30;139211;-40
2021/11/21 03:56:58;;;;;;;28.67;12.85;;;7.70;99.90;;;6.17;100.00;100896.25;2569014;30;137482;-39
2021/11/21 03:59:25;;;;;;;28.85;13.23;;;7.80;99.90;;;6.24;100.00;100888.25;2567908;30;137194;-39
2021/11/21 04:01:55;;;;;;;29.45;12.63;;;7.80;99.90;;;6.19;100.00;100889.66;2568241;30;138367;-39
2021/11/21 04:04:23;;;;;;;26.70;12.38;;;7.80;99.90;;;6.20;100.00;100890.47;2567630;30;137359;-39
2021/11/21 04:06:51;;;;;;;29.38;12.55;;;7.80;99.90;;;6.20;100.00;100887.75;2568899;30;136965;-39
2021/11/21 04:09:19;;;;;;;27.30;11.82;;;7.80;99.90;;;6.14;100.00;100886.66;2568213;30;138298;-39
2021/11/21 04:11:46;;;;;;;29.90;12.38;;;7.80;99.90;;;6.12;100.00;100885.13;2568412;30;137705;-39
2021/11/21 04:14:15;;;;;;;28.10;11.70;;;7.70;99.90;;;6.16;100.00;100879.19;2568548;30;137337;-39
2021/11/21 04:16:43;;;;;;;26.27;11.57;;;7.70;99.90;;;6.15;100.00;100877.50;2568858;30;136792;-39
2021/11/21 04:19:11;;;;;;;25.60;11.25;;;7.70;99.90;;;6.11;100.00;100868.06;2567759;30;138609;-39
2021/11/21 04:21:39;;;;;;;24.35;11.57;;;7.70;99.90;;;6.14;100.00;100869.53;2568531;30;137579;-39
2021/11/21 04:24:12;;;;;;;23.63;10.80;;;7.70;99.90;;;6.14;100.00;100870.41;2568975;30;138150;-39
2021/11/21 04:26:43;;;;;;;26.20;11.70;;;7.70;99.90;;;6.04;100.00;100862.50;2565923;30;138198;-39
2021/11/21 04:29:12;;;;;;;22.17;11.43;;;7.70;99.90;;;6.11;100.00;100869.91;2568258;30;139039;-39
2021/11/21 04:31:40;;;;;;;24.45;10.60;;;7.70;99.90;;;6.09;100.00;100867.34;2568927;30;137729;-39
2021/11/21 04:34:07;;;;;;;;;;;7.70;99.90;;;6.11;100.00;100859.06;2568332;30;138591;-39
2021/11/21 04:36:35;;;;;;;22.23;10.18;;;7.70;99.90;;;6.08;100.00;100860.25;2567560;30;137071;-39
2021/11/21 04:39:04;;;;;;;26.25;11.07;;;7.70;99.90;;;6.11;100.00;100843.66;2566267;30;138601;-39
2021/11/21 04:41:33;;;;;;;21.00;9.93;;;7.70;99.90;;;6.07;100.00;100853.16;2569144;30;138340;-39
2021/11/21 04:44:02;;;;;;;26.15;11.38;;;7.70;99.90;;;6.10;100.00;100841.13;2566690;30;137323;-39
2021/11/21 04:46:30;;;;;;;24.33;10.95;;;7.70;99.90;;;6.14;100.00;100840.59;2567778;30;138245;-39
2021/11/21 04:48:58;;;;;;;25.50;10.60;;;7.70;99.90;;;6.17;100.00;100834.81;2567530;30;138367;-39
2021/11/21 04:51:25;;;;;;;19.65;9.52;;;7.70;99.90;;;6.15;100.00;100842.28;2568542;30;138378;-39
2021/11/21 04:53:53;;;;;;;20.95;10.18;;;7.70;99.90;;;6.10;100.00;100833.84;2567185;30;137583;-39
2021/11/21 04:56:22;;;;;;;19.73;9.77;;;7.70;99.90;;;6.16;100.00;100825.00;2567374;30;137785;-39
2021/11/21 04:58:50;;;;;;;19.42;9.32;;;7.70;99.90;;;6.14;100.00;100824.34;2567782;30;137388;-39
2021/11/21 05:01:17;;;;;;;20.15;10.10;;;7.70;99.90;;;6.12;100.00;100823.69;2567753;30;137770;-40
2021/11/21 05:03:45;;;;;;;20.98;9.60;;;7.70;99.90;;;6.15;100.00;100823.31;2566033;30;137921;-39
2021/11/21 05:06:13;;;;;;;19.00;9.25;;;7.70;99.90;;;6.08;100.00;100822.34;2569052;30;137635;-39
2021/11/21 05:08:41;;;;;;;20.23;9.48;;;7.70;99.90;;;6.05;100.00;100833.53;2568152;30;139154;-40
2021/11/21 05:11:08;;;;;;;21.40;10.05;;;7.70;99.90;;;6.02;100.00;100829.34;2568409;30;137433;-39
2021/11/21 05:13:36;;;;;;;21.85;9.82;;;7.70;99.90;;;6.03;100.00;100828.31;2565291;30;139591;-39
2021/11/21 05:16:04;;;;;;;19.63;10.07;;;7.60;99.90;;;6.01;100.00;100829.50;2568869;30;136985;-39
2021/11/21 05:18:31;;;;;;;;;;;7.60;99.90;;;6.03;100.00;100825.63;2568334;30;139129;-39
2021/11/21 05:20:59;;;;;;;19.23;9.55;;;7.60;99.90;;;6.04;100.00;100812.91;2568582;30;137110;-39
2021/11/21 05:23:26;;;;;;;22.77;9.98;;;7.60;99.90;;;6.09;100.00;100815.91;2567695;30;137390;-39
2021/11/21 05:25:54;;;;;;;19.48;9.70;;;7.70;99.90;;;6.10;100.00;100809.47;2567777;30;138304;-39
2021/11/21 05:28:21;;;;;;;20.95;9.10;;;7.70;99.90;;;6.10;100.00;100804.06;2566174;30;138021;-39
2021/11/21 05:30:50;;;;;;;21.63;10.27;;;7.70;99.90;;;6.16;100.00;100816.00;2567568;30;138606;-39
2021/11/21 05:33:18;;;;;;;19.85;10.35;;;7.70;99.90;;;6.12;100.00;100795.75;2569097;30;138435;-39
2021/11/21 05:35:46;;;;;;;21.63;10.20;;;7.70;99.90;;;6.14;100.00;100809.94;2567512;30;137405;-39
2021/11/21 05:38:14;;;;;;;23.52;10.27;;;7.70;99.90;;;6.20;100.00;100803.78;2567400;30;138441;-39
2021/11/21 05:40:41;;;;;;;22.75;10.27;;;7.80;99.90;;;6.14;100.00;100805.38;2567711;30;137833;-39
2021/11/21 05:43:09;;;;;;;25.90;11.00;;;7.70;99.90;;;6.14;100.00;100799.09;2567729;30;138283;-39
2021/11/21 05:45:38;;;;;;;21.92;10.52;;;7.70;99.90;;;6.17;100.00;100802.28;2567657;30;137827;-40
2021/11/21 05:48:06;;;;;;;22.85;11.05;;;7.80;99.90;;;6.16;100.00;100794.34;2567863;30;137263;-39
2021/11/21 05:50:33;;;;;;;21.92;10.73;;;7.70;99.90;;;6.12;100.00;100793.88;2566640;30;138034;-39
2021/11/21 05:53:01;;;;;;;24.13;11.27;;;7.70;99.90;;;6.15;100.00;100793.50;2567961;30;138448;-40
2021/11/21 05:55:29;;;;;;;21.65;10.43;;;7.80;99.90;;;6.10;100.00;100790.53;2567648;30;137392;-39
2021/11/21 05:57:56;;;;;;;23.73;11.52;;;7.70;99.90;;;6.12;100.00;100799.31;2567545;30;137281;-39
2021/11/21 06:00:27;;;;;;;22.23;11.07;;;7.70;99.90;;;6.13;100.00;100797.41;2568076;30;138212;-39
2021/11/21 06:02:55;;;;;;;25.92;11.52;;;7.70;99.90;;;6.13;100.00;100792.00;2567806;30;138171;-39
2021/11/21 06:05:22;;;;;;;;;;;7.70;99.90;;;6.10;100.00;100779.69;2568688;30;136825;-39
2021/11/21 06:07:50;;;;;;;26.20;11.20;;;7.70;99.90;;;6.16;100.00;100787.06;2567434;30;138593;-39
2021/11/21 06:10:18;;;;;;;24.65;11.27;;;7.70;99.90;;;6.11;100.00;100794.91;2568317;30;137701;-40
2021/11/21 06:12:47;;;;;;;23.83;11.32;;;7.70;99.90;;;6.13;100.00;100794.72;2568234;30;138660;-39
2021/11/21 06:15:15;;;;;;;25.00;10.80;;;7.70;99.90;;;6.13;100.00;100798.28;2566858;30;136810;-39
2021/11/21 06:17:44;;;;;;;27.05;11.50;;;7.70;99.90;;;6.14;100.00;100790.97;2566281;30;138197;-39
2021/11/21 06:20:13;;;;;;;26.52;12.35;;;7.70;99.90;;;6.22;100.00;100787.34;2566507;30;138350;-39
2021/11/21 06:22:41;;;;;;;31.83;12.55;;;7.80;99.90;;;6.16;100.00;100773.53;2568196;30;138443;-39
2021/11/21 06:25:10;;;;;;;27.98;12.52;;;7.80;99.90;;;6.24;100.00;100777.16;2567578;30;138261;-39
2021/11/21 06:27:39;;;;;;;25.40;11.52;;;7.80;99.90;;;6.27;100.00;100783.06;2567727;30;137725;-39
2021/11/21 06:30:09;;;;;;;28.65;12.68;;;7.80;99.90;;;6.27;100.00;100771.38;2568660;30;137605;-39
2021/11/21 06:32:37;;;;;;;26.35;12.18;;;7.80;99.90;;;6.26;100.00;100764.28;2566547;30;138026;-39
2021/11/21 06:35:06;;;;;;;27.00;12.00;;;7.80;99.90;;;6.22;100.00;100766.50;2567990;30;138663;-39
2021/11/21 06:37:35;;;;;;;29.08;12.68;;;7.80;99.90;;;6.28;100.00;100767.63;2567733;30;139016;-39
2021/11/21 06:40:04;;;;;;;27.27;12.23;;;7.80;99.90;;;6.26;100.00;100769.69;2567251;30;137775;-39
2021/11/21 06:42:32;;;;;;;26.73;12.38;;;7.80;99.90;;;6.21;100.00;100764.00;2567038;30;138734;-39
2021/11/21 06:44:59;;;;;;;26.83;12.48;;;7.80;99.90;;;6.20;100.00;100763.13;2567489;30;138382;-39
2021/11/21 06:47:27;;;;;;;25.58;12.20;;;7.80;99.90;;;6.21;100.00;100764.00;2566598;30;138372;-39
2021/11/21 06:49:58;;;;;;;27.05;12.52;;;7.80;99.90;;;6.22;100.00;100762.97;2567258;30;137535;-39
2021/11/21 06:52:26;;;;;;;26.45;12.43;;;7.80;99.90;;;6.17;100.00;100761.66;2566911;30;137371;-39
2021/11/21 06:54:53;;;;;;;;;;;7.80;99.90;;;6.21;100.00;100761.28;2567293;30;138305;-39
2021/11/21 06:57:21;;;;;;;27.15;11.93;;;7.80;99.90;;;6.22;100.00;100762.97;2566132;30;139221;-39
2021/11/21 06:59:48;;;;;;;;;;;7.80;99.90;;;6.23;100.00;100762.75;2566587;30;138512;-39
2021/11/21 07:02:16;;;;;;;25.55;11.55;;;7.80;99.90;;;6.23;100.00;100760.06;2567786;30;138448;-39
2021/11/21 07:04:44;;;;;;;26.08;12.27;;;7.80;99.90;;;6.26;100.00;100761.56;2566546;30;136847;-39
2021/11/21 07:07:12;;;;;;;24.90;11.63;;;7.80;99.90;;;6.23;100.00;100770.06;2567522;30;138328;-39
2021/11/21 07:09:41;;;;;;;25.13;11.63;;;7.80;99.90;;;6.18;100.00;100774.19;2568849;30;137817;-39
2021/11/21 07:12:09;;;;;;;25.85;12.55;;;7.80;99.90;;;6.18;100.00;100785.00;2567395;30;137386;-40
2021/11/21 07:14:37;;;;;;;27.30;12.63;;;7.80;99.90;;;6.21;100.00;100785.66;2567938;30;138488;-40
2021/11/21 07:17:05;;;;;;;26.13;11.93;;;7.80;99.90;;;6.16;100.00;100792.47;2567225;30;138579;-39
2021/11/21 07:19:33;;;;;;;29.63;12.13;;;7.80;99.90;;;6.15;100.00;100789.94;2566566;30;137610;-39
2021/11/21 07:22:01;;;;;;;;;;;7.70;99.90;;;6.16;100.00;100786.22;2568338;30;138145;-39
2021/11/21 07:24:29;;;;;;;24.73;11.13;;;7.70;99.90;;;6.18;100.00;100785.00;2566901;30;137384;-39
2021/11/21 07:26:57;;;;;;;25.15;12.23;;;7.70;99.90;;;6.21;100.00;100782.97;2568029;30;139130;-39
2021/11/21 07:29:28;;;;;;;25.35;11.98;;;7.70;99.90;;;6.23;100.00;100781.72;2568542;30;136705;-40
2021/11/21 07:32:04;;;;;;;24.40;11.13;;;7.80;99.90;;;6.18;100.00;100789.56;2567614;30;138434;-39
2021/11/21 07:34:32;;;;;;;24.17;10.65;;;7.80;99.90;;;6.18;100.00;100789.56;2566389;30;137466;-39
2021/11/21 07:37:00;;;;;;;24.10;11.70;;;7.80;99.90;;;6.20;100.00;100782.09;2568014;30;137194;-39
2021/11/21 07:39:27;;;;;;;;;;;7.80;99.90;;;6.20;100.00;100787.53;2568957;30;138576;-39
2021/11/21 07:41:55;;;;;;;22.73;11.50;;;7.80;99.90;;;6.22;100.00;100792.78;2567221;30;138464;-40
2021/11/21 07:44:25;;;;;;;23.27;10.68;;;7.80;99.90;;;6.19;100.00;100797.53;2566888;30;138633;-39
2021/11/21 07:46:52;;;;;;;27.58;10.75;;;7.80;99.90;;;6.19;100.00;100791.25;2568194;30;138536;-39
2021/11/21 07:49:20;;;;;;;26.00;11.23;;;7.80;99.90;;;6.19;100.00;100793.97;2568665;30;136881;-39
2021/11/21 07:51:48;;;;;;;23.67;10.85;;;7.70;99.90;;;6.16;100.00;100797.91;2568693;30;138081;-39
2021/11/21 07:54:15;;;;;;;24.38;11.48;;;7.80;99.90;;;6.17;100.00;100796.03;2567713;30;138471;-40
2021/11/21 07:56:43;;;;;;;25.85;12.15;;;7.80;99.90;;;6.17;100.00;100794.16;2568230;30;139228;-39
2021/11/21 07:59:11;;;;;;;22.85;10.85;;;7.80;99.90;;;6.19;100.00;100800.25;2568683;30;137696;-39
2021/11/21 08:01:39;;;;;;;23.98;10.98;;;7.80;99.90;;;6.18;100.00;100803.13;2567516;30;139073;-39
2021/11/21 08:04:08;;;;;;;21.63;9.75;;;7.70;99.90;;;6.17;100.00;100796.88;2567746;30;137531;-39
2021/11/21 08:06:35;;;;;;;19.33;9.52;;;7.80;99.90;;;6.17;100.00;100802.28;2569141;30;138423;-39
2021/11/21 08:09:03;;;;;;;22.50;10.10;;;7.80;99.90;;;6.21;100.00;100799.22;2564100;30;137487;-39
2021/11/21 08:11:31;;;;;;;22.67;9.48;;;7.80;99.90;;;6.23;100.00;100803.41;2568454;30;138992;-39
2021/11/21 08:13:58;;;;;;;19.52;8.93;;;7.80;99.90;;;6.23;100.00;100797.16;2566699;30;138053;-39
2021/11/21 08:16:26;;;;;;;19.48;8.70;;;7.80;99.90;;;6.29;100.00;100802.69;2567597;30;137196;-39
2021/11/21 08:18:53;;;;;;;19.20;8.43;;;7.90;99.90;;;6.34;100.00;100802.13;2565927;30;137780;-39
2021/11/21 08:21:21;;;;;;;15.57;8.05;;;7.80;99.90;;;6.32;100.00;100801.47;2568978;30;137560;-39
2021/11/21 08:23:49;;;;;;;19.02;8.20;;;7.90;99.90;;;6.31;100.00;100800.63;2566165;30;137550;-39
2021/11/21 08:26:16;;;;;;;21.10;8.35;;;7.90;99.90;;;6.36;100.00;100808.19;2568356;30;137294;-39
2021/11/21 08:28:44;;;;;;;17.95;8.45;;;7.90;99.90;;;6.36;100.00;100808.19;2566390;30;137018;-39
2021/11/21 08:31:13;;;;;;;16.73;8.02;;;7.90;99.90;;;6.39;100.00;100801.56;2567934;30;138393;-39
2021/11/21 08:33:41;;;;;;;17.85;8.52;;;7.90;99.90;;;6.40;100.00;100804.09;2569778;30;136701;-39
2021/11/21 08:36:08;;;;;;;19.63;8.85;;;8.00;99.90;;;6.49;100.00;100804.84;2568764;30;137312;-39
2021/11/21 08:38:36;;;;;;;16.92;8.27;;;8.00;99.90;;;6.54;100.00;100807.00;2569252;30;138189;-39
2021/11/21 08:41:04;;;;;;;16.35;7.88;;;8.00;99.90;;;6.56;100.00;100808.50;2568179;30;137357;-39
2021/11/21 08:43:31;;;;;;;16.98;7.65;;;8.10;99.90;;;6.59;100.00;100807.28;2569014;30;137693;-39
2021/11/21 08:45:59;;;;;;;16.80;7.28;;;8.10;99.90;;;6.63;100.00;100811.31;2567645;30;138401;-39
2021/11/21 08:48:27;;;;;;;18.52;8.45;;;8.10;99.90;;;6.62;100.00;100804.19;2568550;30;137319;-39
2021/11/21 08:50:56;;;;;;;16.80;7.15;;;8.20;99.90;;;6.58;100.00;100794.75;2567871;30;138488;-39
2021/11/21 08:53:24;;;;;;;16.80;8.30;;;8.20;99.90;;;6.66;100.00;100796.53;2568388;30;138179;-39
2021/11/21 08:55:52;;;;;;;18.45;8.27;;;8.20;99.90;;;6.69;100.00;100793.44;2568350;30;137184;-39
2021/11/21 08:58:19;;;;;;;16.00;7.28;;;8.20;99.90;;;6.69;100.00;100802.44;2568935;30;138198;-39
2021/11/21 09:00:47;;;;;;;19.25;8.80;;;8.20;99.90;;;6.72;100.00;100812.91;2567888;30;138176;-39
2021/11/21 09:03:15;;;;;;;16.70;8.07;;;8.30;99.90;;;6.80;100.00;100798.41;2568517;30;138014;-39
2021/11/21 09:05:43;;;;;;;16.98;8.25;;;8.30;99.90;;;6.83;100.00;100805.31;2568108;30;138158;-39
2021/11/21 09:08:14;;;;;;;18.50;7.75;;;8.30;99.90;;;6.86;100.00;100797.66;2567992;30;138587;-39
2021/11/21 09:10:42;;;;;;;16.27;7.88;;;8.40;99.90;;;6.94;100.00;100806.72;2568400;30;138295;-39
2021/11/21 09:13:10;;;;;;;;;;;8.40;99.90;;;6.98;100.00;100803.44;2568299;30;137561;-39
2021/11/21 09:15:38;;;;;;;18.27;7.88;;;8.50;99.90;;;7.03;100.00;100805.59;2566872;30;138228;-39
2021/11/21 09:18:06;;;;;;;20.55;8.65;;;8.50;99.90;;;7.07;100.00;100814.16;2567904;30;137036;-39
2021/11/21 09:20:34;;;;;;;17.77;7.75;;;8.50;99.90;;;7.05;100.00;100811.66;2568147;30;137259;-39
2021/11/21 09:23:03;;;;;;;16.95;8.20;;;8.50;99.90;;;7.07;100.00;100819.59;2568128;30;137138;-39
2021/11/21 09:25:31;;;;;;;18.48;8.63;;;8.50;99.90;;;7.03;100.00;100806.41;2565769;30;139390;-39
2021/11/21 09:27:58;;;;;;;16.63;8.20;;;8.60;99.90;;;7.09;100.00;100812.09;2568594;30;137759;-39
2021/11/21 09:30:26;;;;;;;17.77;8.00;;;8.60;99.90;;;7.10;100.00;100819.22;2568548;30;137516;-40
2021/11/21 09:32:54;;;;;;;;;;;8.60;99.90;;;7.11;100.00;100820.91;2567601;30;137705;-39
2021/11/21 09:35:24;;;;;;;19.42;8.65;;;8.60;99.90;;;7.13;100.00;100819.69;2569399;30;139137;31
2021/11/21 09:37:52;;;;;;;17.48;8.45;;;8.60;99.90;;;7.06;100.00;100807.91;2569566;30;136750;-38
2021/11/21 09:40:20;;;;;;;;;;;8.60;99.90;;;7.10;100.00;100821.94;2569787;30;137734;-38
2021/11/21 09:42:47;;;;;;;15.95;7.85;;;8.60;99.90;;;7.08;100.00;100822.13;2569047;30;137904;-38
2021/11/21 09:45:17;;;;;;;16.77;8.15;;;8.60;99.90;;;7.12;100.00;100825.28;2570314;30;137563;-38
2021/11/21 09:47:56;;;;;;;16.65;8.32;;;8.60;99.90;;;7.15;100.00;100823.06;2570952;30;138455;-38
2021/11/21 09:50:30;;;;;;;15.02;7.65;;;8.60;99.90;;;7.19;100.00;100829.78;2568649;30;139408;-38
2021/11/21 09:52:59;;;;;;;15.23;7.75;;;8.70;99.90;;;7.22;100.00;100825.00;2569307;30;137562;-38
2021/11/21 09:55:27;;;;;;;19.50;9.00;;;8.70;99.90;;;7.19;100.00;100823.53;2568173;30;138483;-38
2021/11/21 09:57:57;;;;;;;19.05;8.32;;;8.70;99.90;;;7.25;100.00;100828.19;2567500;30;137811;-38
2021/11/21 10:00:27;;;;;;;19.40;8.90;;;8.70;99.90;;;7.31;100.00;100827.41;2570596;30;139004;-38
2021/11/21 10:03:02;;;;;;;18.77;8.80;;;8.80;99.90;;;7.38;100.00;100826.63;2566985;30;137701;-38
2021/11/21 10:05:38;;;;;;;16.33;8.43;;;8.80;99.90;;;7.47;100.00;100826.34;2568510;30;139127;-38
2021/11/21 10:08:22;;;;;;;16.40;7.97;;;8.90;99.90;;;7.53;100.00;100832.88;2569411;30;137635;-38
2021/11/21 10:11:01;;;;;;;18.58;8.00;;;9.00;99.90;;;7.58;100.00;100827.72;2568849;30;139117;-38
2021/11/21 10:13:44;;;;;;;15.75;8.20;;;9.00;99.90;;;7.56;100.00;100823.50;2570201;30;138252;-38
2021/11/21 10:16:17;;;;;;;16.15;8.32;;;9.00;99.90;;;7.54;100.00;100828.28;2568894;30;139328;-38
2021/11/21 10:19:07;;;;;;;16.98;8.02;;;9.00;99.90;;;7.55;100.00;100821.81;2566791;30;137305;-38
2021/11/21 10:22:00;;;;;;;16.35;7.95;;;9.00;99.90;;;7.59;100.00;100823.97;2569502;30;138246;-38